sensor_id;sensor_type;location;lat;lon;timestamp;temperature;humidity
44229;DHT22;29904;51.058;5.378;2022-07-29T00:00:53;15.50;99.90
44229;DHT22;29904;51.058;5.378;2022-07-29T00:03:19;15.40;99.90
44229;DHT22;29904;51.058;5.378;2022-07-29T00:05:45;15.40;99.90
44229;DHT22;29904;51.058;5.378;2022-07-29T00:08:11;15.40;99.90
44229;DHT22;29904;51.058;5.378;2022-07-29T00:10:37;15.40;99.90
44229;DHT22;29904;51.058;5.378;2022-07-29T00:13:03;15.40;99.90
44229;DHT22;29904;51.058;5.378;2022-07-29T00:15:29;15.30;99.90
44229;DHT22;29904;51.058;5.378;2022-07-29T00:17:55;15.30;99.90
44229;DHT22;29904;51.058;5.378;2022-07-29T00:20:20;15.40;99.90
44229;DHT22;29904;51.058;5.378;2022-07-29T00:22:46;15.40;99.90
44229;DHT22;29904;51.058;5.378;2022-07-29T00:25:12;15.40;99.90
44229;DHT22;29904;51.058;5.378;2022-07-29T00:27:38;15.50;99.90
44229;DHT22;29904;51.058;5.378;2022-07-29T00:30:05;15.60;99.90
44229;DHT22;29904;51.058;5.378;2022-07-29T00:32:31;15.60;99.90
44229;DHT22;29904;51.058;5.378;2022-07-29T00:34:59;15.70;99.90
44229;DHT22;29904;51.058;5.378;2022-07-29T00:37:44;15.70;99.90
44229;DHT22;29904;51.058;5.378;2022-07-29T00:40:12;15.80;99.90
44229;DHT22;29904;51.058;5.378;2022-07-29T00:42:49;15.90;99.90
44229;DHT22;29904;51.058;5.378;2022-07-29T00:45:16;16.00;99.90
44229;DHT22;29904;51.058;5.378;2022-07-29T00:47:42;16.00;99.90
44229;DHT22;29904;51.058;5.378;2022-07-29T00:50:11;16.10;99.90
44229;DHT22;29904;51.058;5.378;2022-07-29T00:52:39;16.10;99.90
44229;DHT22;29904;51.058;5.378;2022-07-29T00:55:07;16.10;99.90
44229;DHT22;29904;51.058;5.378;2022-07-29T00:57:34;16.20;99.90
44229;DHT22;29904;51.058;5.378;2022-07-29T01:00:00;16.20;99.90
44229;DHT22;29904;51.058;5.378;2022-07-29T01:02:25;16.20;99.90
44229;DHT22;29904;51.058;5.378;2022-07-29T01:04:52;16.20;99.90
44229;DHT22;29904;51.058;5.378;2022-07-29T01:07:18;16.20;99.90
44229;DHT22;29904;51.058;5.378;2022-07-29T01:09:45;16.20;99.90
44229;DHT22;29904;51.058;5.378;2022-07-29T01:12:15;16.20;99.90
44229;DHT22;29904;51.058;5.378;2022-07-29T01:14:41;16.10;99.90
44229;DHT22;29904;51.058;5.378;2022-07-29T01:17:17;16.10;99.90
44229;DHT22;29904;51.058;5.378;2022-07-29T01:22:40;16.20;99.90
44229;DHT22;29904;51.058;5.378;2022-07-29T01:25:28;16.20;99.90
44229;DHT22;29904;51.058;5.378;2022-07-29T01:30:42;16.00;99.90
44229;DHT22;29904;51.058;5.378;2022-07-29T01:33:13;15.80;99.90
44229;DHT22;29904;51.058;5.378;2022-07-29T01:36:01;15.70;99.90
44229;DHT22;29904;51.058;5.378;2022-07-29T01:38:30;15.60;99.90
44229;DHT22;29904;51.058;5.378;2022-07-29T01:41:05;15.50;99.90
44229;DHT22;29904;51.058;5.378;2022-07-29T01:43:51;15.40;99.90
44229;DHT22;29904;51.058;5.378;2022-07-29T01:46:24;15.30;99.90
44229;DHT22;29904;51.058;5.378;2022-07-29T01:48:57;15.30;99.90
44229;DHT22;29904;51.058;5.378;2022-07-29T01:51:59;15.30;99.90
44229;DHT22;29904;51.058;5.378;2022-07-29T01:54:38;15.30;99.90
44229;DHT22;29904;51.058;5.378;2022-07-29T01:57:11;15.30;99.90
44229;DHT22;29904;51.058;5.378;2022-07-29T01:59:38;15.30;99.90
44229;DHT22;29904;51.058;5.378;2022-07-29T02:02:07;15.30;99.90
44229;DHT22;29904;51.058;5.378;2022-07-29T02:04:35;15.40;99.90
44229;DHT22;29904;51.058;5.378;2022-07-29T02:07:04;15.40;99.90
44229;DHT22;29904;51.058;5.378;2022-07-29T02:09:31;15.40;99.90
44229;DHT22;29904;51.058;5.378;2022-07-29T02:12:00;15.40;99.90
44229;DHT22;29904;51.058;5.378;2022-07-29T02:14:31;15.50;99.90
44229;DHT22;29904;51.058;5.378;2022-07-29T02:17:00;15.50;99.90
44229;DHT22;29904;51.058;5.378;2022-07-29T02:19:27;15.60;99.90
44229;DHT22;29904;51.058;5.378;2022-07-29T02:21:57;15.60;99.90
44229;DHT22;29904;51.058;5.378;2022-07-29T02:24:24;15.70;99.90
44229;DHT22;29904;51.058;5.378;2022-07-29T02:26:53;15.70;99.90
44229;DHT22;29904;51.058;5.378;2022-07-29T02:29:22;15.80;99.90
44229;DHT22;29904;51.058;5.378;2022-07-29T02:31:49;15.80;99.90
44229;DHT22;29904;51.058;5.378;2022-07-29T02:34:18;15.80;99.90
44229;DHT22;29904;51.058;5.378;2022-07-29T02:36:45;15.80;99.90
44229;DHT22;29904;51.058;5.378;2022-07-29T02:39:12;15.70;99.90
44229;DHT22;29904;51.058;5.378;2022-07-29T02:41:43;15.80;99.90
44229;DHT22;29904;51.058;5.378;2022-07-29T02:44:17;15.70;99.90
44229;DHT22;29904;51.058;5.378;2022-07-29T02:49:21;15.70;99.90
44229;DHT22;29904;51.058;5.378;2022-07-29T02:52:02;15.70;99.90
44229;DHT22;29904;51.058;5.378;2022-07-29T02:54:39;15.70;99.90
44229;DHT22;29904;51.058;5.378;2022-07-29T02:57:31;15.70;99.90
44229;DHT22;29904;51.058;5.378;2022-07-29T03:00:01;15.80;99.90
44229;DHT22;29904;51.058;5.378;2022-07-29T03:02:35;15.80;99.90
44229;DHT22;29904;51.058;5.378;2022-07-29T03:05:02;15.80;99.90
44229;DHT22;29904;51.058;5.378;2022-07-29T03:07:29;15.80;99.90
44229;DHT22;29904;51.058;5.378;2022-07-29T03:09:58;15.80;99.90
44229;DHT22;29904;51.058;5.378;2022-07-29T03:12:28;15.90;99.90
44229;DHT22;29904;51.058;5.378;2022-07-29T03:14:55;16.00;99.90
44229;DHT22;29904;51.058;5.378;2022-07-29T03:17:21;16.00;99.90
44229;DHT22;29904;51.058;5.378;2022-07-29T03:19:47;16.00;99.90
44229;DHT22;29904;51.058;5.378;2022-07-29T03:22:14;16.00;99.90
44229;DHT22;29904;51.058;5.378;2022-07-29T03:24:42;16.00;99.90
44229;DHT22;29904;51.058;5.378;2022-07-29T03:27:07;16.00;99.90
44229;DHT22;29904;51.058;5.378;2022-07-29T03:29:33;16.00;99.90
44229;DHT22;29904;51.058;5.378;2022-07-29T03:31:59;16.00;99.90
44229;DHT22;29904;51.058;5.378;2022-07-29T03:34:25;16.00;99.90
44229;DHT22;29904;51.058;5.378;2022-07-29T03:36:50;16.00;99.90
44229;DHT22;29904;51.058;5.378;2022-07-29T03:39:23;15.90;99.90
44229;DHT22;29904;51.058;5.378;2022-07-29T03:41:53;15.90;99.90
44229;DHT22;29904;51.058;5.378;2022-07-29T03:44:22;15.90;99.90
44229;DHT22;29904;51.058;5.378;2022-07-29T03:46:50;15.90;99.90
44229;DHT22;29904;51.058;5.378;2022-07-29T03:49:17;15.90;99.90
44229;DHT22;29904;51.058;5.378;2022-07-29T03:51:45;15.90;99.90
44229;DHT22;29904;51.058;5.378;2022-07-29T03:54:11;15.90;99.90
44229;DHT22;29904;51.058;5.378;2022-07-29T03:56:40;16.00;99.90
44229;DHT22;29904;51.058;5.378;2022-07-29T03:59:09;16.00;99.90
44229;DHT22;29904;51.058;5.378;2022-07-29T04:01:36;16.00;99.90
44229;DHT22;29904;51.058;5.378;2022-07-29T04:04:02;16.00;99.90
44229;DHT22;29904;51.058;5.378;2022-07-29T04:06:46;15.90;99.90
44229;DHT22;29904;51.058;5.378;2022-07-29T04:09:12;15.90;99.90
44229;DHT22;29904;51.058;5.378;2022-07-29T04:11:40;15.80;99.90
44229;DHT22;29904;51.058;5.378;2022-07-29T04:14:06;15.80;99.90
44229;DHT22;29904;51.058;5.378;2022-07-29T04:16:32;15.80;99.90
44229;DHT22;29904;51.058;5.378;2022-07-29T04:18:58;15.80;99.90
44229;DHT22;29904;51.058;5.378;2022-07-29T04:21:24;15.80;99.90
44229;DHT22;29904;51.058;5.378;2022-07-29T04:23:50;15.80;99.90
44229;DHT22;29904;51.058;5.378;2022-07-29T04:26:16;15.80;99.90
44229;DHT22;29904;51.058;5.378;2022-07-29T04:28:42;15.80;99.90
44229;DHT22;29904;51.058;5.378;2022-07-29T04:31:09;15.80;99.90
44229;DHT22;29904;51.058;5.378;2022-07-29T04:33:37;15.80;99.90
44229;DHT22;29904;51.058;5.378;2022-07-29T04:36:03;15.90;99.90
44229;DHT22;29904;51.058;5.378;2022-07-29T04:38:29;15.90;99.90
44229;DHT22;29904;51.058;5.378;2022-07-29T04:40:54;15.90;99.90
44229;DHT22;29904;51.058;5.378;2022-07-29T04:43:20;15.90;99.90
44229;DHT22;29904;51.058;5.378;2022-07-29T04:45:48;16.00;99.90
44229;DHT22;29904;51.058;5.378;2022-07-29T04:48:14;16.00;99.90
44229;DHT22;29904;51.058;5.378;2022-07-29T04:50:40;16.00;99.90
44229;DHT22;29904;51.058;5.378;2022-07-29T04:53:06;16.00;99.90
44229;DHT22;29904;51.058;5.378;2022-07-29T04:55:33;16.00;99.90
44229;DHT22;29904;51.058;5.378;2022-07-29T04:57:59;15.90;99.90
44229;DHT22;29904;51.058;5.378;2022-07-29T05:00:24;15.80;99.90
44229;DHT22;29904;51.058;5.378;2022-07-29T05:02:50;15.80;99.90
44229;DHT22;29904;51.058;5.378;2022-07-29T05:05:16;15.80;99.90
44229;DHT22;29904;51.058;5.378;2022-07-29T05:07:44;15.90;99.90
44229;DHT22;29904;51.058;5.378;2022-07-29T05:10:09;16.00;99.90
44229;DHT22;29904;51.058;5.378;2022-07-29T05:12:37;16.10;99.90
44229;DHT22;29904;51.058;5.378;2022-07-29T05:15:02;16.10;99.90
44229;DHT22;29904;51.058;5.378;2022-07-29T05:17:28;16.10;99.90
44229;DHT22;29904;51.058;5.378;2022-07-29T05:19:54;16.10;99.90
44229;DHT22;29904;51.058;5.378;2022-07-29T05:22:20;16.00;99.90
44229;DHT22;29904;51.058;5.378;2022-07-29T05:24:46;15.90;99.90
44229;DHT22;29904;51.058;5.378;2022-07-29T05:27:12;16.10;99.90
44229;DHT22;29904;51.058;5.378;2022-07-29T05:29:38;15.90;99.90
44229;DHT22;29904;51.058;5.378;2022-07-29T05:32:04;15.80;99.90
44229;DHT22;29904;51.058;5.378;2022-07-29T05:34:30;15.70;99.90
44229;DHT22;29904;51.058;5.378;2022-07-29T05:36:57;15.70;99.90
44229;DHT22;29904;51.058;5.378;2022-07-29T05:39:23;15.80;99.90
44229;DHT22;29904;51.058;5.378;2022-07-29T05:41:49;15.90;99.90
44229;DHT22;29904;51.058;5.378;2022-07-29T05:44:17;16.00;99.90
44229;DHT22;29904;51.058;5.378;2022-07-29T05:46:45;16.00;99.90
44229;DHT22;29904;51.058;5.378;2022-07-29T05:49:10;16.10;99.90
44229;DHT22;29904;51.058;5.378;2022-07-29T05:51:37;16.00;99.90
44229;DHT22;29904;51.058;5.378;2022-07-29T05:54:05;16.00;99.90
44229;DHT22;29904;51.058;5.378;2022-07-29T05:56:31;16.00;99.90
44229;DHT22;29904;51.058;5.378;2022-07-29T05:58:56;16.10;99.90
44229;DHT22;29904;51.058;5.378;2022-07-29T06:01:22;16.20;99.90
44229;DHT22;29904;51.058;5.378;2022-07-29T06:03:48;16.10;99.90
44229;DHT22;29904;51.058;5.378;2022-07-29T06:06:14;16.20;99.90
44229;DHT22;29904;51.058;5.378;2022-07-29T06:08:40;16.20;99.90
44229;DHT22;29904;51.058;5.378;2022-07-29T06:11:08;16.20;99.90
44229;DHT22;29904;51.058;5.378;2022-07-29T06:13:36;16.20;99.90
44229;DHT22;29904;51.058;5.378;2022-07-29T06:16:01;16.30;99.90
44229;DHT22;29904;51.058;5.378;2022-07-29T06:18:29;16.20;99.90
44229;DHT22;29904;51.058;5.378;2022-07-29T06:20:55;16.20;99.90
44229;DHT22;29904;51.058;5.378;2022-07-29T06:23:21;16.20;99.90
44229;DHT22;29904;51.058;5.378;2022-07-29T06:25:49;16.40;99.90
44229;DHT22;29904;51.058;5.378;2022-07-29T06:28:14;16.40;99.90
44229;DHT22;29904;51.058;5.378;2022-07-29T06:30:40;16.50;99.90
44229;DHT22;29904;51.058;5.378;2022-07-29T06:33:06;16.60;99.90
44229;DHT22;29904;51.058;5.378;2022-07-29T06:35:37;16.60;99.90
44229;DHT22;29904;51.058;5.378;2022-07-29T06:38:04;16.60;99.90
44229;DHT22;29904;51.058;5.378;2022-07-29T06:40:30;16.60;99.90
44229;DHT22;29904;51.058;5.378;2022-07-29T06:43:16;16.60;99.90
44229;DHT22;29904;51.058;5.378;2022-07-29T06:45:42;16.70;99.90
44229;DHT22;29904;51.058;5.378;2022-07-29T06:48:09;16.80;99.90
44229;DHT22;29904;51.058;5.378;2022-07-29T06:50:35;16.90;99.90
44229;DHT22;29904;51.058;5.378;2022-07-29T06:53:03;17.00;99.90
44229;DHT22;29904;51.058;5.378;2022-07-29T06:55:29;17.10;99.90
44229;DHT22;29904;51.058;5.378;2022-07-29T06:57:54;17.20;99.90
44229;DHT22;29904;51.058;5.378;2022-07-29T07:00:20;17.40;99.90
44229;DHT22;29904;51.058;5.378;2022-07-29T07:02:46;17.60;99.90
44229;DHT22;29904;51.058;5.378;2022-07-29T07:05:12;17.70;99.90
44229;DHT22;29904;51.058;5.378;2022-07-29T07:07:39;17.90;99.90
44229;DHT22;29904;51.058;5.378;2022-07-29T07:10:05;18.00;99.90
44229;DHT22;29904;51.058;5.378;2022-07-29T07:12:31;18.00;99.90
44229;DHT22;29904;51.058;5.378;2022-07-29T07:14:59;18.00;99.90
44229;DHT22;29904;51.058;5.378;2022-07-29T07:17:25;18.00;99.90
44229;DHT22;29904;51.058;5.378;2022-07-29T07:19:50;18.10;99.90
44229;DHT22;29904;51.058;5.378;2022-07-29T07:22:18;18.20;99.90
44229;DHT22;29904;51.058;5.378;2022-07-29T07:24:44;18.30;99.90
44229;DHT22;29904;51.058;5.378;2022-07-29T07:27:10;18.30;99.90
44229;DHT22;29904;51.058;5.378;2022-07-29T07:29:35;18.30;99.90
44229;DHT22;29904;51.058;5.378;2022-07-29T07:32:01;18.50;99.90
44229;DHT22;29904;51.058;5.378;2022-07-29T07:34:27;18.50;99.90
44229;DHT22;29904;51.058;5.378;2022-07-29T07:36:53;18.40;99.90
44229;DHT22;29904;51.058;5.378;2022-07-29T07:39:19;18.40;99.90
44229;DHT22;29904;51.058;5.378;2022-07-29T07:41:45;18.50;99.90
44229;DHT22;29904;51.058;5.378;2022-07-29T07:44:11;18.50;99.90
44229;DHT22;29904;51.058;5.378;2022-07-29T07:46:36;18.60;99.90
44229;DHT22;29904;51.058;5.378;2022-07-29T07:49:04;18.70;99.90
44229;DHT22;29904;51.058;5.378;2022-07-29T07:51:29;18.80;99.90
44229;DHT22;29904;51.058;5.378;2022-07-29T07:53:55;18.80;99.90
44229;DHT22;29904;51.058;5.378;2022-07-29T07:56:23;18.80;99.90
44229;DHT22;29904;51.058;5.378;2022-07-29T07:58:50;18.80;99.90
44229;DHT22;29904;51.058;5.378;2022-07-29T08:01:16;18.80;99.90
44229;DHT22;29904;51.058;5.378;2022-07-29T08:03:44;18.90;99.90
44229;DHT22;29904;51.058;5.378;2022-07-29T08:06:10;19.00;99.90
44229;DHT22;29904;51.058;5.378;2022-07-29T08:08:35;19.10;99.90
44229;DHT22;29904;51.058;5.378;2022-07-29T08:11:01;19.20;99.90
44229;DHT22;29904;51.058;5.378;2022-07-29T08:13:29;19.30;99.90
44229;DHT22;29904;51.058;5.378;2022-07-29T08:15:56;19.50;99.90
44229;DHT22;29904;51.058;5.378;2022-07-29T08:18:24;19.80;99.90
44229;DHT22;29904;51.058;5.378;2022-07-29T08:20:50;20.20;99.90
44229;DHT22;29904;51.058;5.378;2022-07-29T08:23:16;20.70;99.90
44229;DHT22;29904;51.058;5.378;2022-07-29T08:25:44;21.10;99.90
44229;DHT22;29904;51.058;5.378;2022-07-29T08:28:10;21.40;99.90
44229;DHT22;29904;51.058;5.378;2022-07-29T08:30:37;21.70;99.90
44229;DHT22;29904;51.058;5.378;2022-07-29T08:33:03;21.80;99.90
44229;DHT22;29904;51.058;5.378;2022-07-29T08:35:29;21.90;99.90
44229;DHT22;29904;51.058;5.378;2022-07-29T08:37:55;22.00;99.90
44229;DHT22;29904;51.058;5.378;2022-07-29T08:40:22;22.40;99.90
44229;DHT22;29904;51.058;5.378;2022-07-29T08:42:49;22.60;99.90
44229;DHT22;29904;51.058;5.378;2022-07-29T08:45:15;22.60;99.90
44229;DHT22;29904;51.058;5.378;2022-07-29T08:47:44;22.70;99.90
44229;DHT22;29904;51.058;5.378;2022-07-29T08:50:10;23.00;99.90
44229;DHT22;29904;51.058;5.378;2022-07-29T08:52:38;23.20;99.90
44229;DHT22;29904;51.058;5.378;2022-07-29T08:55:07;23.20;99.90
44229;DHT22;29904;51.058;5.378;2022-07-29T08:57:34;23.20;99.90
44229;DHT22;29904;51.058;5.378;2022-07-29T09:00:07;23.40;99.90
44229;DHT22;29904;51.058;5.378;2022-07-29T09:02:38;23.20;99.90
44229;DHT22;29904;51.058;5.378;2022-07-29T09:05:06;23.40;99.90
44229;DHT22;29904;51.058;5.378;2022-07-29T09:07:32;23.50;99.90
44229;DHT22;29904;51.058;5.378;2022-07-29T09:09:59;23.40;99.90
44229;DHT22;29904;51.058;5.378;2022-07-29T09:12:28;23.50;99.90
44229;DHT22;29904;51.058;5.378;2022-07-29T09:14:54;23.80;99.90
44229;DHT22;29904;51.058;5.378;2022-07-29T09:17:46;23.90;99.90
44229;DHT22;29904;51.058;5.378;2022-07-29T09:20:15;24.10;99.90
44229;DHT22;29904;51.058;5.378;2022-07-29T09:22:41;24.20;99.90
44229;DHT22;29904;51.058;5.378;2022-07-29T09:25:08;24.20;99.90
44229;DHT22;29904;51.058;5.378;2022-07-29T09:27:34;24.30;99.90
44229;DHT22;29904;51.058;5.378;2022-07-29T09:30:08;24.40;99.90
44229;DHT22;29904;51.058;5.378;2022-07-29T09:32:58;24.60;99.90
44229;DHT22;29904;51.058;5.378;2022-07-29T09:35:29;24.60;99.90
44229;DHT22;29904;51.058;5.378;2022-07-29T09:37:55;24.60;99.90
44229;DHT22;29904;51.058;5.378;2022-07-29T09:40:26;24.70;99.90
44229;DHT22;29904;51.058;5.378;2022-07-29T09:42:53;24.80;99.90
44229;DHT22;29904;51.058;5.378;2022-07-29T09:45:33;24.90;99.90
44229;DHT22;29904;51.058;5.378;2022-07-29T09:47:59;24.80;99.90
44229;DHT22;29904;51.058;5.378;2022-07-29T09:50:44;24.70;99.90
44229;DHT22;29904;51.058;5.378;2022-07-29T09:53:10;24.80;99.90
44229;DHT22;29904;51.058;5.378;2022-07-29T09:55:51;24.80;99.90
44229;DHT22;29904;51.058;5.378;2022-07-29T09:58:21;24.90;99.90
44229;DHT22;29904;51.058;5.378;2022-07-29T10:00:49;25.00;99.90
44229;DHT22;29904;51.058;5.378;2022-07-29T10:03:16;25.10;99.90
44229;DHT22;29904;51.058;5.378;2022-07-29T10:05:45;25.30;99.90
44229;DHT22;29904;51.058;5.378;2022-07-29T10:08:11;25.20;99.90
44229;DHT22;29904;51.058;5.378;2022-07-29T10:10:42;25.20;99.90
44229;DHT22;29904;51.058;5.378;2022-07-29T10:13:13;25.20;99.90
44229;DHT22;29904;51.058;5.378;2022-07-29T10:15:41;25.30;99.90
44229;DHT22;29904;51.058;5.378;2022-07-29T10:18:10;25.30;99.90
44229;DHT22;29904;51.058;5.378;2022-07-29T10:20:37;25.40;99.90
44229;DHT22;29904;51.058;5.378;2022-07-29T10:23:03;25.50;99.90
44229;DHT22;29904;51.058;5.378;2022-07-29T10:25:30;25.70;99.90
44229;DHT22;29904;51.058;5.378;2022-07-29T10:27:56;25.60;99.90
44229;DHT22;29904;51.058;5.378;2022-07-29T10:30:25;25.70;99.90
44229;DHT22;29904;51.058;5.378;2022-07-29T10:36:09;26.10;99.90
44229;DHT22;29904;51.058;5.378;2022-07-29T10:41:56;26.20;99.90
44229;DHT22;29904;51.058;5.378;2022-07-29T10:44:25;26.30;99.90
44229;DHT22;29904;51.058;5.378;2022-07-29T10:46:53;26.20;99.90
44229;DHT22;29904;51.058;5.378;2022-07-29T10:49:19;26.50;99.90
44229;DHT22;29904;51.058;5.378;2022-07-29T10:52:04;26.50;99.90
44229;DHT22;29904;51.058;5.378;2022-07-29T10:57:22;26.50;99.90
44229;DHT22;29904;51.058;5.378;2022-07-29T11:05:06;26.50;99.90
44229;DHT22;29904;51.058;5.378;2022-07-29T11:07:35;26.50;99.90
44229;DHT22;29904;51.058;5.378;2022-07-29T11:15:17;26.70;99.90
44229;DHT22;29904;51.058;5.378;2022-07-29T11:20:45;27.10;99.90
44229;DHT22;29904;51.058;5.378;2022-07-29T11:23:31;26.90;99.90
44229;DHT22;29904;51.058;5.378;2022-07-29T11:26:13;27.10;99.90
44229;DHT22;29904;51.058;5.378;2022-07-29T11:31:31;27.40;99.90
44229;DHT22;29904;51.058;5.378;2022-07-29T11:39:40;27.60;99.90
44229;DHT22;29904;51.058;5.378;2022-07-29T11:47:33;27.30;99.90
44229;DHT22;29904;51.058;5.378;2022-07-29T11:50:00;27.50;99.90
44229;DHT22;29904;51.058;5.378;2022-07-29T11:52:34;27.50;99.90
44229;DHT22;29904;51.058;5.378;2022-07-29T11:55:04;27.40;99.90
44229;DHT22;29904;51.058;5.378;2022-07-29T11:57:30;27.60;99.90
44229;DHT22;29904;51.058;5.378;2022-07-29T11:59:57;27.80;99.90
44229;DHT22;29904;51.058;5.378;2022-07-29T12:02:23;27.70;99.90
44229;DHT22;29904;51.058;5.378;2022-07-29T12:04:52;27.60;99.90
44229;DHT22;29904;51.058;5.378;2022-07-29T12:07:28;27.70;99.90
44229;DHT22;29904;51.058;5.378;2022-07-29T12:09:54;27.70;99.90
44229;DHT22;29904;51.058;5.378;2022-07-29T12:12:21;27.90;99.90
44229;DHT22;29904;51.058;5.378;2022-07-29T12:14:47;28.00;99.90
44229;DHT22;29904;51.058;5.378;2022-07-29T12:17:31;28.10;99.90
44229;DHT22;29904;51.058;5.378;2022-07-29T12:19:59;27.90;99.90
44229;DHT22;29904;51.058;5.378;2022-07-29T12:22:30;28.00;99.90
44229;DHT22;29904;51.058;5.378;2022-07-29T12:25:02;28.30;99.90
44229;DHT22;29904;51.058;5.378;2022-07-29T12:27:29;28.40;99.10
44229;DHT22;29904;51.058;5.378;2022-07-29T12:30:00;28.40;99.90
44229;DHT22;29904;51.058;5.378;2022-07-29T12:32:38;28.40;98.60
44229;DHT22;29904;51.058;5.378;2022-07-29T12:35:06;28.60;99.90
44229;DHT22;29904;51.058;5.378;2022-07-29T12:37:34;28.60;99.90
44229;DHT22;29904;51.058;5.378;2022-07-29T12:40:00;28.60;97.00
44229;DHT22;29904;51.058;5.378;2022-07-29T12:42:27;28.70;99.00
44229;DHT22;29904;51.058;5.378;2022-07-29T12:44:53;29.00;97.00
44229;DHT22;29904;51.058;5.378;2022-07-29T12:47:19;29.20;97.20
44229;DHT22;29904;51.058;5.378;2022-07-29T12:49:46;29.20;97.30
44229;DHT22;29904;51.058;5.378;2022-07-29T12:52:33;28.80;97.90
44229;DHT22;29904;51.058;5.378;2022-07-29T12:54:59;28.60;97.70
44229;DHT22;29904;51.058;5.378;2022-07-29T12:57:26;28.20;97.80
44229;DHT22;29904;51.058;5.378;2022-07-29T13:00:24;27.80;98.00
44229;DHT22;29904;51.058;5.378;2022-07-29T13:02:57;27.40;98.30
44229;DHT22;29904;51.058;5.378;2022-07-29T13:05:24;27.60;98.40
44229;DHT22;29904;51.058;5.378;2022-07-29T13:08:14;28.10;99.00
44229;DHT22;29904;51.058;5.378;2022-07-29T13:10:42;28.60;99.00
44229;DHT22;29904;51.058;5.378;2022-07-29T13:13:10;28.80;96.70
44229;DHT22;29904;51.058;5.378;2022-07-29T13:15:45;28.60;95.80
44229;DHT22;29904;51.058;5.378;2022-07-29T13:18:33;28.40;97.70
44229;DHT22;29904;51.058;5.378;2022-07-29T13:21:12;28.40;97.30
44229;DHT22;29904;51.058;5.378;2022-07-29T13:23:38;28.30;97.20
44229;DHT22;29904;51.058;5.378;2022-07-29T13:26:11;28.00;96.60
44229;DHT22;29904;51.058;5.378;2022-07-29T13:28:37;27.80;97.10
44229;DHT22;29904;51.058;5.378;2022-07-29T13:31:03;27.40;97.50
44229;DHT22;29904;51.058;5.378;2022-07-29T13:33:29;27.30;98.30
44229;DHT22;29904;51.058;5.378;2022-07-29T13:35:57;27.40;97.70
44229;DHT22;29904;51.058;5.378;2022-07-29T13:38:23;27.70;98.60
44229;DHT22;29904;51.058;5.378;2022-07-29T13:40:49;28.20;97.10
44229;DHT22;29904;51.058;5.378;2022-07-29T13:43:15;28.20;96.10
44229;DHT22;29904;51.058;5.378;2022-07-29T13:45:40;27.90;96.20
44229;DHT22;29904;51.058;5.378;2022-07-29T13:48:06;27.50;96.20
44229;DHT22;29904;51.058;5.378;2022-07-29T13:50:32;27.10;97.20
44229;DHT22;29904;51.058;5.378;2022-07-29T13:52:58;27.10;97.30
44229;DHT22;29904;51.058;5.378;2022-07-29T13:55:26;27.00;97.40
44229;DHT22;29904;51.058;5.378;2022-07-29T13:57:52;27.00;97.00
44229;DHT22;29904;51.058;5.378;2022-07-29T14:00:18;27.10;97.30
44229;DHT22;29904;51.058;5.378;2022-07-29T14:02:46;27.00;97.60
44229;DHT22;29904;51.058;5.378;2022-07-29T14:05:12;27.00;97.10
44229;DHT22;29904;51.058;5.378;2022-07-29T14:07:38;27.10;97.90
44229;DHT22;29904;51.058;5.378;2022-07-29T14:10:05;27.00;97.70
44229;DHT22;29904;51.058;5.378;2022-07-29T14:12:31;27.20;98.30
44229;DHT22;29904;51.058;5.378;2022-07-29T14:14:56;27.20;97.40
44229;DHT22;29904;51.058;5.378;2022-07-29T14:17:22;27.20;98.00
44229;DHT22;29904;51.058;5.378;2022-07-29T14:19:50;27.50;98.90
44229;DHT22;29904;51.058;5.378;2022-07-29T14:22:17;28.00;98.10
44229;DHT22;29904;51.058;5.378;2022-07-29T14:24:44;28.40;97.30
44229;DHT22;29904;51.058;5.378;2022-07-29T14:27:10;28.80;96.30
44229;DHT22;29904;51.058;5.378;2022-07-29T14:29:38;29.00;95.60
44229;DHT22;29904;51.058;5.378;2022-07-29T14:32:06;29.40;95.30
44229;DHT22;29904;51.058;5.378;2022-07-29T14:34:32;29.80;94.80
44229;DHT22;29904;51.058;5.378;2022-07-29T14:37:00;30.00;94.50
44229;DHT22;29904;51.058;5.378;2022-07-29T14:39:26;30.00;92.40
44229;DHT22;29904;51.058;5.378;2022-07-29T14:41:52;30.10;92.00
44229;DHT22;29904;51.058;5.378;2022-07-29T14:44:18;29.90;92.00
44229;DHT22;29904;51.058;5.378;2022-07-29T14:46:44;29.50;91.50
44229;DHT22;29904;51.058;5.378;2022-07-29T14:49:10;29.00;91.70
44229;DHT22;29904;51.058;5.378;2022-07-29T14:51:35;28.60;92.20
44229;DHT22;29904;51.058;5.378;2022-07-29T14:54:01;28.80;93.30
44229;DHT22;29904;51.058;5.378;2022-07-29T14:56:28;29.00;92.40
44229;DHT22;29904;51.058;5.378;2022-07-29T14:58:56;29.20;92.00
44229;DHT22;29904;51.058;5.378;2022-07-29T15:01:23;29.40;93.40
44229;DHT22;29904;51.058;5.378;2022-07-29T15:03:48;29.60;92.30
44229;DHT22;29904;51.058;5.378;2022-07-29T15:06:15;29.80;90.10
44229;DHT22;29904;51.058;5.378;2022-07-29T15:08:41;29.60;90.80
44229;DHT22;29904;51.058;5.378;2022-07-29T15:11:09;29.40;90.10
44229;DHT22;29904;51.058;5.378;2022-07-29T15:13:35;29.00;91.80
44229;DHT22;29904;51.058;5.378;2022-07-29T15:16:00;28.80;90.40
44229;DHT22;29904;51.058;5.378;2022-07-29T15:18:28;28.40;91.20
44229;DHT22;29904;51.058;5.378;2022-07-29T15:20:54;28.50;91.50
44229;DHT22;29904;51.058;5.378;2022-07-29T15:23:20;28.50;91.80
44229;DHT22;29904;51.058;5.378;2022-07-29T15:25:45;28.80;91.60
44229;DHT22;29904;51.058;5.378;2022-07-29T15:28:11;28.90;91.80
44229;DHT22;29904;51.058;5.378;2022-07-29T15:30:37;29.00;91.30
44229;DHT22;29904;51.058;5.378;2022-07-29T15:33:07;29.00;90.20
44229;DHT22;29904;51.058;5.378;2022-07-29T15:35:34;28.80;90.90
44229;DHT22;29904;51.058;5.378;2022-07-29T15:38:00;28.70;91.10
44229;DHT22;29904;51.058;5.378;2022-07-29T15:40:26;28.30;90.70
44229;DHT22;29904;51.058;5.378;2022-07-29T15:42:52;28.10;90.90
44229;DHT22;29904;51.058;5.378;2022-07-29T15:45:20;27.60;91.80
44229;DHT22;29904;51.058;5.378;2022-07-29T15:47:45;27.40;92.10
44229;DHT22;29904;51.058;5.378;2022-07-29T15:50:11;27.40;91.80
44229;DHT22;29904;51.058;5.378;2022-07-29T15:52:43;27.40;92.20
44229;DHT22;29904;51.058;5.378;2022-07-29T15:55:09;27.30;91.70
44229;DHT22;29904;51.058;5.378;2022-07-29T15:57:35;27.20;92.00
44229;DHT22;29904;51.058;5.378;2022-07-29T16:00:03;27.20;92.20
44229;DHT22;29904;51.058;5.378;2022-07-29T16:02:29;27.40;91.80
44229;DHT22;29904;51.058;5.378;2022-07-29T16:04:56;27.40;91.60
44229;DHT22;29904;51.058;5.378;2022-07-29T16:07:21;27.30;91.90
44229;DHT22;29904;51.058;5.378;2022-07-29T16:09:49;27.10;92.00
44229;DHT22;29904;51.058;5.378;2022-07-29T16:12:14;27.20;92.70
44229;DHT22;29904;51.058;5.378;2022-07-29T16:14:40;27.20;92.70
44229;DHT22;29904;51.058;5.378;2022-07-29T16:17:06;27.20;92.40
44229;DHT22;29904;51.058;5.378;2022-07-29T16:19:32;27.10;92.20
44229;DHT22;29904;51.058;5.378;2022-07-29T16:21:57;26.90;92.60